Time;durP1;ratioP1;P1;durP2;ratioP2;P2;SDS_P1;SDS_P2;PMS_P1;PMS_P2;Temp;Humidity;BMP_temperature;BMP_pressure;BME280_temperature;BME280_humidity;BME280_pressure;Samples;Min_cycle;Max_cycle;Signal;HPM_P1;HPM_P2
2020/12/19 00:01:29;;;;;;;0.50;0.40;;;;;;;3.62;98.93;101699.44;5015360;28;20490;-65
2020/12/19 00:03:56;;;;;;;1.17;1.07;;;;;;;3.65;99.14;101701.69;5025433;28;20953;-65
2020/12/19 00:06:22;;;;;;;1.20;0.80;;;;;;;3.70;99.12;101693.78;5035089;28;20859;-65
2020/12/19 00:08:49;;;;;;;0.43;0.37;;;;;;;3.71;98.77;101695.41;5025642;28;20483;-64
2020/12/19 00:11:15;;;;;;;1.33;1.33;;;;;;;3.66;99.33;101681.06;5015216;28;20504;-64
2020/12/19 00:13:42;;;;;;;0.80;0.80;;;;;;;3.68;98.94;101697.75;5022392;28;20948;-65
2020/12/19 00:16:09;;;;;;;0.90;0.60;;;;;;;3.69;98.50;101691.31;5034835;28;20442;-64
2020/12/19 00:18:35;;;;;;;5.37;1.23;;;;;;;3.69;98.28;101688.66;5028095;28;20455;-65
2020/12/19 00:21:01;;;;;;;1.27;0.50;;;;;;;3.68;97.81;101687.84;5015087;28;20468;-65
2020/12/19 00:23:27;;;;;;;1.13;0.83;;;;;;;3.61;97.71;101683.59;5019139;28;20488;-64
2020/12/19 00:25:54;;;;;;;0.63;0.57;;;;;;;3.55;97.03;101682.66;5033796;28;20479;-64
2020/12/19 00:28:20;;;;;;;1.13;0.57;;;;;;;3.49;97.14;101683.53;5032399;28;20484;-65
2020/12/19 00:30:47;;;;;;;1.13;0.67;;;;;;;3.49;97.12;101697.75;5014825;28;20494;-64
2020/12/19 00:33:13;;;;;;;0.80;0.60;;;;;;;3.45;96.35;101687.72;5015669;28;20448;-65
2020/12/19 00:35:39;;;;;;;1.07;0.87;;;;;;;3.36;97.08;101686.41;5034202;28;20481;-65
2020/12/19 00:38:05;;;;;;;2.03;1.23;;;;;;;3.32;96.56;101661.13;5027557;28;20864;-64
2020/12/19 00:40:31;;;;;;;3.27;1.63;;;;;;;3.30;96.79;101669.38;5017350;28;20510;-65
2020/12/19 00:42:58;;;;;;;0.50;0.50;;;;;;;3.23;96.08;101665.97;5033303;28;20458;-64
2020/12/19 00:45:25;;;;;;;0.90;0.80;;;;;;;3.23;97.06;101665.97;5030866;28;20485;-63
2020/12/19 00:47:51;;;;;;;1.27;0.67;;;;;;;3.25;97.44;101670.06;5016670;28;20963;-63
2020/12/19 00:50:17;;;;;;;0.87;0.63;;;;;;;3.31;97.89;101673.69;5018204;28;21028;-62
2020/12/19 00:52:43;;;;;;;2.60;1.80;;;;;;;3.34;98.77;101673.25;5036077;28;20479;-63
2020/12/19 00:55:09;;;;;;;0.60;0.50;;;;;;;3.40;99.26;101676.88;5035638;28;20807;-63
2020/12/19 00:57:37;;;;;;;0.83;0.67;;;;;;;3.41;99.43;101674.00;5015716;28;20443;-62
2020/12/19 01:00:05;;;;;;;1.53;1.43;;;;;;;3.45;99.25;101668.97;5016218;28;20451;-63
2020/12/19 01:02:35;;;;;;;0.40;0.30;;;;;;;3.43;99.53;101665.72;5035339;28;20451;-62
2020/12/19 01:05:01;;;;;;;0.73;0.50;;;;;;;3.45;99.38;101666.28;5035946;28;20483;-62
2020/12/19 01:07:29;;;;;;;4.07;1.50;;;;;;;3.44;99.33;101662.81;5018463;28;20460;-63
2020/12/19 01:09:55;;;;;;;0.40;0.30;;;;;;;3.43;99.67;101660.38;5017096;28;20451;-62
2020/12/19 01:12:21;;;;;;;0.57;0.57;;;;;;;3.39;99.62;101659.19;5016469;28;20476;-63
2020/12/19 01:14:47;;;;;;;0.40;0.30;;;;;;;3.35;99.62;101650.78;5014630;28;20798;-62
2020/12/19 01:17:14;;;;;;;0.40;0.30;;;;;;;3.36;99.56;101655.06;5015721;28;20481;-63
2020/12/19 01:19:40;;;;;;;2.30;2.10;;;;;;;3.40;98.93;101664.28;5014574;28;21023;-62
2020/12/19 01:22:07;;;;;;;0.50;0.40;;;;;;;3.38;99.23;101652.19;5028279;28;20503;-62
2020/12/19 01:24:33;;;;;;;0.40;0.30;;;;;;;3.32;98.64;101653.94;5036174;28;20540;-63
2020/12/19 01:26:59;;;;;;;0.50;0.40;;;;;;;3.31;98.48;101657.63;5024676;28;20455;-63
2020/12/19 01:29:25;;;;;;;2.23;2.10;;;;;;;3.28;98.47;101652.75;5016304;28;20968;-62
2020/12/19 01:31:51;;;;;;;2.50;2.10;;;;;;;3.26;98.90;101650.28;5031907;28;20882;-63
2020/12/19 01:34:18;;;;;;;1.27;0.70;;;;;;;3.19;98.06;101646.06;5027907;28;20451;-62
2020/12/19 01:36:46;;;;;;;0.40;0.30;;;;;;;3.19;98.15;101648.75;5015993;28;20537;-62
2020/12/19 01:39:12;;;;;;;1.87;0.93;;;;;;;3.16;98.41;101651.84;5022747;28;20478;-62
2020/12/19 01:41:38;;;;;;;3.67;0.73;;;;;;;3.17;98.43;101646.28;5035661;28;20459;-63
2020/12/19 01:44:05;;;;;;;0.93;0.80;;;;;;;3.17;97.87;101648.94;5030278;28;20524;-63
2020/12/19 01:46:51;;;;;;;0.97;0.80;;;;;;;3.13;97.37;101644.28;5015758;28;20991;-62
2020/12/19 01:49:18;;;;;;;4.40;1.47;;;;;;;3.08;97.36;101642.28;5021984;28;20439;-62
2020/12/19 01:51:47;;;;;;;6.80;0.57;;;;;;;3.08;97.58;101642.28;5035653;28;20459;-63
2020/12/19 01:54:13;;;;;;;0.40;0.30;;;;;;;3.09;97.84;101637.72;5028999;28;20455;-62
2020/12/19 01:56:51;;;;;;;0.43;0.33;;;;;;;3.06;98.75;101632.84;5015490;28;20439;-63
2020/12/19 01:59:18;;;;;;;0.40;0.40;;;;;;;3.10;99.21;101628.66;5016727;28;20447;-61
2020/12/19 02:01:45;;;;;;;0.53;0.50;;;;;;;3.15;98.73;101634.97;5015598;28;20526;-63
2020/12/19 02:04:12;;;;;;;1.73;0.90;;;;;;;3.12;99.36;101632.75;5019246;28;20851;-62
2020/12/19 02:06:41;;;;;;;2.40;1.37;;;;;;;3.15;99.33;101628.81;5034932;28;20975;-63
2020/12/19 02:09:07;;;;;;;0.47;0.40;;;;;;;3.16;99.30;101633.13;5032125;28;20868;-63
2020/12/19 02:11:34;;;;;;;8.70;1.60;;;;;;;3.14;99.54;101629.84;5015342;28;20476;-63
2020/12/19 02:14:00;;;;;;;0.40;0.40;;;;;;;3.17;99.28;101632.88;5016977;28;20440;-63
2020/12/19 02:16:26;;;;;;;0.60;0.60;;;;;;;3.13;99.80;101629.03;5033852;28;20994;-62
2020/12/19 02:18:52;;;;;;;1.53;1.43;;;;;;;3.16;99.62;101623.22;5035044;28;20952;-62
2020/12/19 02:21:19;;;;;;;3.23;1.07;;;;;;;3.16;99.48;101623.22;5023580;28;20464;-62
2020/12/19 02:23:46;;;;;;;0.40;0.40;;;;;;;3.12;99.03;101619.38;5015663;28;20440;-63
2020/12/19 02:26:12;;;;;;;0.50;0.50;;;;;;;3.04;98.06;101615.13;5016318;28;20525;-62
2020/12/19 02:28:39;;;;;;;1.07;0.90;;;;;;;3.06;97.96;101617.59;5015098;28;20456;-62
2020/12/19 02:31:05;;;;;;;0.40;0.40;;;;;;;3.00;97.76;101619.28;5025417;28;20864;-62
2020/12/19 02:33:31;;;;;;;0.53;0.53;;;;;;;3.02;97.90;101611.06;5036629;28;20443;-62
2020/12/19 02:35:57;;;;;;;0.70;0.70;;;;;;;2.93;97.38;101605.19;5028333;28;20454;-63
2020/12/19 02:38:23;;;;;;;1.00;0.97;;;;;;;2.90;97.72;101597.63;5016134;28;20474;-63
2020/12/19 02:40:51;;;;;;;0.80;0.80;;;;;;;2.94;97.77;101595.31;5021944;28;20532;-62
2020/12/19 02:43:17;;;;;;;0.87;0.57;;;;;;;2.92;98.83;101592.03;5034762;28;20442;-62
2020/12/19 02:45:43;;;;;;;0.40;0.30;;;;;;;2.93;99.08;101597.16;5029751;28;20552;-65
2020/12/19 02:48:09;;;;;;;0.50;0.40;;;;;;;2.97;98.78;101590.34;5019086;28;20452;-64
2020/12/19 02:50:35;;;;;;;0.60;0.60;;;;;;;2.94;99.16;101582.75;5022708;28;20480;-65
2020/12/19 02:53:01;;;;;;;0.40;0.30;;;;;;;2.92;98.60;101578.66;5021510;28;20451;-63
2020/12/19 02:55:28;;;;;;;1.43;0.93;;;;;;;2.84;97.76;101581.66;5021367;28;20451;-64
2020/12/19 02:57:55;;;;;;;1.53;1.43;;;;;;;2.84;97.48;101574.44;5040319;28;20447;-63
2020/12/19 03:00:21;;;;;;;0.80;0.53;;;;;;;2.78;97.44;101570.78;5040372;28;20470;-65
2020/12/19 03:02:47;;;;;;;0.50;0.50;;;;;;;2.80;98.46;101572.44;5020217;28;20952;-64
2020/12/19 03:05:13;;;;;;;0.50;0.40;;;;;;;2.85;98.59;101572.59;5021550;28;20491;-64
2020/12/19 03:07:40;;;;;;;4.70;2.50;;;;;;;2.85;98.67;101572.59;5038844;28;20507;-64
2020/12/19 03:10:06;;;;;;;0.40;0.30;;;;;;;2.81;98.54;101572.22;5038692;28;20451;-65
2020/12/19 03:12:32;;;;;;;1.63;1.03;;;;;;;2.84;98.96;101565.59;5020935;28;20462;-65
2020/12/19 03:14:59;;;;;;;1.50;0.70;;;;;;;2.77;99.51;101561.13;5021973;28;20937;-65
2020/12/19 03:17:25;;;;;;;2.60;1.57;;;;;;;2.84;99.68;101568.28;5042110;28;20450;-65
2020/12/19 03:19:52;;;;;;;0.60;0.50;;;;;;;2.91;99.52;101574.34;5033298;28;20833;-65
2020/12/19 03:22:18;;;;;;;8.73;1.57;;;;;;;2.90;99.51;101565.50;5021794;28;20887;-65
2020/12/19 03:24:44;;;;;;;0.47;0.43;;;;;;;2.94;99.83;101563.19;5029520;28;20526;-64
2020/12/19 03:27:10;;;;;;;3.23;1.67;;;;;;;2.94;99.75;101564.00;5040695;28;20443;-64
2020/12/19 03:29:36;;;;;;;1.00;0.70;;;;;;;2.92;99.74;101557.25;5032646;28;20514;-65
2020/12/19 03:32:03;;;;;;;0.40;0.30;;;;;;;2.95;99.98;101562.97;5018832;28;20475;-65
2020/12/19 03:34:29;;;;;;;1.60;1.50;;;;;;;2.95;99.73;101549.59;5019846;28;20823;-65
2020/12/19 03:36:56;;;;;;;0.93;0.93;;;;;;;2.95;100.00;101551.44;5018627;28;20444;-64
2020/12/19 03:39:22;;;;;;;0.60;0.50;;;;;;;2.98;99.75;101551.00;5022912;28;20501;-64
2020/12/19 03:41:48;;;;;;;0.40;0.30;;;;;;;3.00;100.00;101563.09;5037696;28;20473;-65
2020/12/19 03:44:14;;;;;;;2.30;2.10;;;;;;;3.01;99.93;101548.69;5035777;28;20463;-64
2020/12/19 03:46:40;;;;;;;0.50;0.40;;;;;;;2.99;100.00;101552.63;5018475;28;20581;-64
2020/12/19 03:49:07;;;;;;;2.53;1.27;;;;;;;2.97;100.00;101546.69;5018561;28;20467;-64
2020/12/19 03:51:33;;;;;;;1.27;1.17;;;;;;;2.98;100.00;101551.00;5018367;28;20472;-64
2020/12/19 03:54:01;;;;;;;2.33;1.90;;;;;;;3.00;99.88;101543.56;5023171;28;21006;-64
2020/12/19 03:56:27;;;;;;;0.57;0.57;;;;;;;3.03;99.81;101548.47;5038467;28;20484;-65
2020/12/19 03:58:53;;;;;;;0.40;0.37;;;;;;;3.04;99.74;101544.72;5033889;28;20444;-65
2020/12/19 04:01:19;;;;;;;1.57;1.47;;;;;;;3.06;100.00;101548.03;5017155;28;20478;-64
2020/12/19 04:03:45;;;;;;;1.80;0.70;;;;;;;3.01;99.80;101539.81;5016808;28;20498;-65
2020/12/19 04:06:12;;;;;;;0.60;0.60;;;;;;;3.03;99.36;101533.22;5016901;28;20856;-65
2020/12/19 04:08:38;;;;;;;0.50;0.40;;;;;;;2.99;99.00;101529.34;5017077;28;20882;-65
2020/12/19 04:11:06;;;;;;;0.70;0.47;;;;;;;2.98;98.59;101534.94;5036261;28;20466;-64
2020/12/19 04:13:32;;;;;;;0.50;0.47;;;;;;;2.91;98.74;101534.22;5035991;28;20935;-64
2020/12/19 04:15:58;;;;;;;2.00;1.90;;;;;;;2.97;98.90;101542.16;5015799;28;20443;-64
2020/12/19 04:18:25;;;;;;;2.30;0.77;;;;;;;2.99;98.75;101540.06;5015888;28;20444;-65
2020/12/19 04:20:52;;;;;;;2.20;0.90;;;;;;;2.99;98.80;101531.22;5027049;28;20475;-65
2020/12/19 04:23:19;;;;;;;0.73;0.70;;;;;;;2.99;99.82;101533.91;5015300;28;20528;-64
2020/12/19 04:25:45;;;;;;;0.50;0.40;;;;;;;3.01;100.00;101538.00;5031576;28;20479;-64
2020/12/19 04:28:11;;;;;;;0.90;0.73;;;;;;;3.00;100.00;101538.19;5034995;28;20462;-64
2020/12/19 04:30:37;;;;;;;0.47;0.40;;;;;;;3.07;100.00;101538.94;5019801;28;21004;-65
2020/12/19 04:33:04;;;;;;;2.20;0.60;;;;;;;3.11;99.90;101545.47;5017027;28;20455;-64
2020/12/19 04:35:30;;;;;;;0.50;0.50;;;;;;;3.10;100.00;101540.31;5028512;28;20458;-64
2020/12/19 04:37:56;;;;;;;0.40;0.30;;;;;;;3.08;100.00;101537.88;5035257;28;20454;-62
2020/12/19 04:40:23;;;;;;;1.67;1.43;;;;;;;3.11;100.00;101531.28;5023586;28;20496;-63
2020/12/19 04:42:49;;;;;;;0.87;0.50;;;;;;;3.13;100.00;101532.66;5014964;28;20447;-65
2020/12/19 04:45:16;;;;;;;1.07;1.07;;;;;;;3.05;100.00;101535.66;5024658;28;20960;-65
2020/12/19 04:47:42;;;;;;;1.00;0.97;;;;;;;3.08;100.00;101532.53;5034425;28;20479;-65
2020/12/19 04:50:08;;;;;;;2.70;1.73;;;;;;;3.13;100.00;101543.38;5019857;28;20446;-64
2020/12/19 04:52:35;;;;;;;3.23;1.27;;;;;;;3.13;100.00;101540.69;5014470;28;20447;-66
2020/12/19 04:55:01;;;;;;;0.70;0.67;;;;;;;3.09;98.88;101531.47;5027278;28;20472;-65
2020/12/19 04:57:28;;;;;;;0.77;0.77;;;;;;;2.94;98.07;101529.22;5028999;28;20483;-66
2020/12/19 04:59:54;;;;;;;0.70;0.70;;;;;;;2.92;98.06;101542.03;5014150;28;20863;-65
2020/12/19 05:02:20;;;;;;;0.50;0.50;;;;;;;2.90;97.40;101554.00;5017948;28;20495;-64
2020/12/19 05:04:46;;;;;;;1.10;1.10;;;;;;;2.88;97.69;101546.19;5034150;28;20529;-65
2020/12/19 05:07:14;;;;;;;3.50;2.10;;;;;;;2.86;97.42;101540.25;5031584;28;20482;-64
2020/12/19 05:09:41;;;;;;;3.70;0.50;;;;;;;2.80;97.27;101538.47;5014293;28;20444;-65
2020/12/19 05:12:08;;;;;;;0.80;0.80;;;;;;;2.82;97.76;101547.09;5014627;28;20503;-65
2020/12/19 05:14:36;;;;;;;0.50;0.40;;;;;;;2.79;97.39;101544.88;5033841;28;20501;-65
2020/12/19 05:17:03;;;;;;;0.40;0.30;;;;;;;2.71;97.50;101543.31;5033866;28;20455;-66
2020/12/19 05:19:29;;;;;;;0.50;0.50;;;;;;;2.72;97.50;101547.63;5033133;28;20959;-65
2020/12/19 05:21:57;;;;;;;0.50;0.40;;;;;;;2.73;97.11;101553.78;5033777;28;20481;-66
2020/12/19 05:24:28;;;;;;;0.40;0.27;;;;;;;2.74;97.62;101545.53;5018781;28;20444;-65
2020/12/19 05:26:54;;;;;;;1.37;1.27;;;;;;;2.75;98.65;101546.38;5014039;28;20552;-65
2020/12/19 05:29:20;;;;;;;2.00;1.43;;;;;;;2.73;99.35;101543.91;5031058;28;20494;-62
2020/12/19 05:31:54;;;;;;;0.53;0.53;;;;;;;2.73;99.31;101543.91;5017623;28;20486;-65
2020/12/19 05:34:21;;;;;;;0.50;0.40;;;;;;;2.80;99.39;101545.69;5030547;28;20478;-65
2020/12/19 05:36:50;;;;;;;0.40;0.30;;;;;;;2.77;100.00;101545.09;5033696;28;20439;-65
2020/12/19 05:39:17;;;;;;;0.77;0.73;;;;;;;2.73;100.00;101540.41;5017862;28;20440;-64
2020/12/19 05:41:43;;;;;;;0.40;0.30;;;;;;;2.80;100.00;101546.50;5014153;28;20503;-65
2020/12/19 05:44:09;;;;;;;0.40;0.30;;;;;;;2.82;100.00;101540.91;5028155;28;20455;-64
2020/12/19 05:46:37;;;;;;;0.97;0.97;;;;;;;2.83;100.00;101538.00;5033647;28;20526;-66
2020/12/19 05:49:05;;;;;;;1.83;0.67;;;;;;;2.84;100.00;101539.66;5020051;28;20444;-64
2020/12/19 05:51:34;;;;;;;0.70;0.70;;;;;;;2.85;100.00;101546.66;5021774;28;20506;-65
2020/12/19 05:54:02;;;;;;;1.70;0.73;;;;;;;2.82;99.80;101546.28;5033047;28;20983;-65
2020/12/19 05:56:29;;;;;;;0.40;0.40;;;;;;;2.75;98.89;101546.38;5025964;28;20451;-65
2020/12/19 05:59:01;;;;;;;0.50;0.50;;;;;;;2.64;98.20;101539.91;5013597;28;20498;-63
2020/12/19 06:01:27;;;;;;;1.33;0.60;;;;;;;2.63;98.37;101548.16;5013676;28;20497;-64
2020/12/19 06:03:55;;;;;;;0.77;0.77;;;;;;;2.58;97.94;101545.34;5013537;28;20484;-65
2020/12/19 06:06:24;;;;;;;0.63;0.60;;;;;;;2.52;97.88;101541.69;5024593;28;20512;-64
2020/12/19 06:08:50;;;;;;;0.50;0.40;;;;;;;2.52;97.61;101539.00;5033399;28;20454;-65
2020/12/19 06:11:21;;;;;;;1.03;0.97;;;;;;;2.52;97.05;101541.69;5032436;28;20521;-64
2020/12/19 06:13:52;;;;;;;0.50;0.40;;;;;;;2.48;96.81;101545.88;5033168;28;20531;-65
2020/12/19 06:16:19;;;;;;;4.53;1.37;;;;;;;2.41;97.06;101542.44;5022553;28;20444;-64
2020/12/19 06:19:02;;;;;;;0.40;0.30;;;;;;;2.43;96.53;101540.34;5015189;28;20451;-65
2020/12/19 06:21:31;;;;;;;0.63;0.63;;;;;;;2.41;96.60;101537.09;5033202;28;20829;-63
2020/12/19 06:23:57;;;;;;;1.13;1.03;;;;;;;2.40;97.04;101540.81;5032867;28;20447;-64
2020/12/19 06:26:35;;;;;;;1.20;0.77;;;;;;;2.40;97.52;101540.81;5016971;28;21014;-65
2020/12/19 06:29:01;;;;;;;1.80;0.90;;;;;;;2.37;98.75;101546.59;5016833;28;20893;-64
2020/12/19 06:31:27;;;;;;;2.30;0.70;;;;;;;2.38;98.75;101538.34;5017100;28;20479;-65
2020/12/19 06:33:54;;;;;;;0.60;0.60;;;;;;;2.31;98.64;101531.47;5029736;28;20475;-65
2020/12/19 06:36:23;;;;;;;0.43;0.40;;;;;;;2.32;98.73;101539.25;5036929;28;20808;-64
2020/12/19 06:38:54;;;;;;;4.20;1.63;;;;;;;2.27;98.31;101539.09;5024997;28;20470;-64
2020/12/19 06:41:46;;;;;;;0.70;0.67;;;;;;;2.27;98.41;101526.56;5017041;28;20470;-63
2020/12/19 06:44:15;;;;;;;5.50;1.40;;;;;;;2.30;98.58;101535.16;5028922;28;20599;-64
2020/12/19 06:46:42;;;;;;;0.50;0.37;;;;;;;2.32;97.91;101533.91;5032129;28;20513;-66
2020/12/19 06:49:36;;;;;;;0.40;0.30;;;;;;;2.31;98.01;101534.13;5036505;28;20445;-64
2020/12/19 06:52:10;;;;;;;1.10;1.10;;;;;;;2.27;98.22;101534.56;4987874;28;20539;-64
2020/12/19 06:54:39;;;;;;;0.90;0.90;;;;;;;2.32;99.09;101522.41;5015021;28;20448;-64
2020/12/19 06:57:07;;;;;;;3.97;0.60;;;;;;;2.38;99.96;101524.97;5031683;28;20521;-65
2020/12/19 06:59:34;;;;;;;0.87;0.70;;;;;;;2.47;100.00;101522.81;5036334;28;20488;-64
2020/12/19 07:02:16;;;;;;;0.40;0.33;;;;;;;2.50;100.00;101517.03;5021774;28;20467;-65
2020/12/19 07:04:43;;;;;;;1.70;0.87;;;;;;;2.52;100.00;101531.00;5016556;28;20435;-64
2020/12/19 07:07:11;;;;;;;0.50;0.40;;;;;;;2.61;100.00;101529.69;5031314;28;20459;-65
2020/12/19 07:09:39;;;;;;;1.73;1.63;;;;;;;2.63;100.00;101513.38;5036026;28;20442;-65
2020/12/19 07:12:06;;;;;;;0.40;0.30;;;;;;;2.68;100.00;101516.19;5021801;28;20472;-64
2020/12/19 07:14:42;;;;;;;0.40;0.30;;;;;;;2.65;100.00;101514.78;5016366;28;20454;-65
2020/12/19 07:17:18;;;;;;;3.17;2.90;;;;;;;2.73;100.00;101505.63;5029910;28;20443;-65
2020/12/19 07:19:45;;;;;;;0.80;0.80;;;;;;;2.74;100.00;101521.44;5036151;28;20907;-65
2020/12/19 07:22:11;;;;;;;1.10;0.60;;;;;;;2.76;100.00;101508.69;5035248;28;20473;-64
2020/12/19 07:24:39;;;;;;;1.07;1.07;;;;;;;2.80;100.00;101511.72;5036071;28;20441;-64
2020/12/19 07:27:05;;;;;;;0.50;0.50;;;;;;;2.83;100.00;101497.06;5023168;28;20440;-64
2020/12/19 07:29:32;;;;;;;0.40;0.37;;;;;;;2.89;100.00;101525.59;5016065;28;20491;-64
2020/12/19 07:32:00;;;;;;;1.03;0.87;;;;;;;2.92;100.00;101520.63;5019142;28;20471;-65
2020/12/19 07:34:27;;;;;;;2.40;0.50;;;;;;;2.89;99.91;101517.59;5015824;28;20442;-64
2020/12/19 07:36:54;;;;;;;0.80;0.73;;;;;;;2.81;98.74;101523.25;5025435;28;20482;-64
2020/12/19 07:39:23;;;;;;;0.40;0.30;;;;;;;2.87;98.34;101517.78;5035662;28;20462;-63
2020/12/19 07:42:04;;;;;;;0.40;0.30;;;;;;;2.85;98.08;101524.44;5026410;28;20511;-64
2020/12/19 07:44:30;;;;;;;1.00;0.53;;;;;;;2.88;98.24;101531.97;5015866;28;20456;-64
2020/12/19 07:46:59;;;;;;;0.40;0.30;;;;;;;2.91;97.76;101516.28;5024716;28;20522;-64
2020/12/19 07:49:34;;;;;;;1.70;0.70;;;;;;;2.93;97.98;101529.47;5029180;28;20464;-64
2020/12/19 07:52:19;;;;;;;0.50;0.47;;;;;;;2.94;97.56;101528.41;5015983;28;20459;-64
2020/12/19 07:54:54;;;;;;;0.40;0.30;;;;;;;2.92;97.49;101525.13;5018978;28;20443;-65
2020/12/19 07:57:22;;;;;;;1.83;0.83;;;;;;;2.96;97.78;101527.13;5034732;28;20521;-65
2020/12/19 07:59:49;;;;;;;0.40;0.40;;;;;;;2.97;97.92;101530.66;5034026;28;20520;-65
2020/12/19 08:02:17;;;;;;;0.60;0.60;;;;;;;3.02;98.56;101512.84;5029206;28;20464;-65
2020/12/19 08:04:53;;;;;;;1.47;0.83;;;;;;;3.09;98.74;101514.63;5006112;28;20972;-65
2020/12/19 08:07:22;;;;;;;1.27;0.63;;;;;;;3.14;99.19;101520.91;5016345;28;20459;-66
2020/12/19 08:09:48;;;;;;;0.80;0.70;;;;;;;3.20;99.35;101522.69;5017552;28;20864;-64
2020/12/19 08:12:15;;;;;;;4.83;1.37;;;;;;;3.21;99.57;101535.03;5018176;28;20517;-64
2020/12/19 08:14:44;;;;;;;0.40;0.20;;;;;;;3.29;99.39;101545.41;5021233;28;20479;-65
2020/12/19 08:17:17;;;;;;;0.50;0.40;;;;;;;3.38;99.76;101564.66;5016202;28;20448;-64
2020/12/19 08:19:47;;;;;;;1.70;1.27;;;;;;;3.44;99.28;101555.69;5017869;28;20448;-62
2020/12/19 08:22:15;;;;;;;0.80;0.67;;;;;;;3.49;99.17;101561.16;5015231;28;20496;-65
2020/12/19 08:24:46;;;;;;;0.40;0.30;;;;;;;3.53;99.13;101558.84;5015232;28;20449;-64
2020/12/19 08:27:43;;;;;;;0.50;0.40;;;;;;;3.56;98.88;101560.25;5020505;28;20498;-64
2020/12/19 08:30:21;;;;;;;0.60;0.40;;;;;;;3.58;98.63;101553.59;5033141;28;20524;-66
2020/12/19 08:32:50;;;;;;;0.60;0.60;;;;;;;3.59;98.65;101565.97;5017025;28;20447;-64
2020/12/19 08:35:22;;;;;;;0.60;0.57;;;;;;;3.59;97.65;101557.94;5016850;28;20447;-65
2020/12/19 08:37:48;;;;;;;0.40;0.30;;;;;;;3.62;97.74;101567.38;5033842;28;20823;-64
2020/12/19 08:40:16;;;;;;;1.63;0.87;;;;;;;3.64;97.72;101543.84;5016600;28;20965;-65
2020/12/19 08:42:44;;;;;;;0.40;0.30;;;;;;;3.69;97.86;101558.19;5020774;28;20451;-64
2020/12/19 08:45:23;;;;;;;0.40;0.30;;;;;;;3.71;97.83;101544.53;5020291;28;20482;-65
2020/12/19 08:47:52;;;;;;;0.67;0.67;;;;;;;3.78;97.84;101551.44;5031377;28;20440;-66
2020/12/19 08:50:25;;;;;;;0.60;0.47;;;;;;;3.85;97.62;101550.50;5014669;28;20956;-65
2020/12/19 08:53:17;;;;;;;1.27;0.70;;;;;;;3.89;97.32;101563.19;5016726;28;20448;-64
2020/12/19 08:55:43;;;;;;;0.73;0.63;;;;;;;3.91;97.44;101549.59;5034545;28;20444;-65
2020/12/19 08:58:20;;;;;;;0.40;0.30;;;;;;;3.92;97.52;101559.25;5033110;28;20470;-64
2020/12/19 09:00:47;;;;;;;4.10;0.80;;;;;;;3.94;97.01;101557.13;5028701;28;20907;-64
2020/12/19 09:03:14;;;;;;;2.30;0.73;;;;;;;3.89;97.12;101552.47;5013523;28;20464;-65
2020/12/19 09:05:43;;;;;;;0.50;0.40;;;;;;;3.94;97.15;101559.81;5014513;28;20480;-64
2020/12/19 09:08:10;;;;;;;0.40;0.30;;;;;;;3.93;96.97;101547.47;5014461;28;20450;-65
2020/12/19 09:10:37;;;;;;;3.33;1.67;;;;;;;4.03;96.83;101555.78;5014208;28;20498;-62
2020/12/19 09:13:13;;;;;;;1.63;1.07;;;;;;;4.06;96.88;101552.59;5014165;28;20942;-65
2020/12/19 09:15:43;;;;;;;0.40;0.30;;;;;;;4.06;96.62;101541.88;5014232;28;20459;-64
2020/12/19 09:18:18;;;;;;;0.40;0.30;;;;;;;4.05;96.82;101540.25;5014025;28;20448;-64
2020/12/19 09:20:45;;;;;;;0.60;0.50;;;;;;;4.07;96.69;101535.47;5013961;28;20468;-63
2020/12/19 09:23:12;;;;;;;0.70;0.70;;;;;;;4.04;96.81;101549.34;5013843;28;20479;-65
2020/12/19 09:25:38;;;;;;;1.47;1.07;;;;;;;4.11;97.23;101542.00;5014397;28;20524;-65
2020/12/19 09:28:05;;;;;;;0.40;0.30;;;;;;;4.16;96.67;101533.25;5013682;28;20459;-64
2020/12/19 09:30:31;;;;;;;0.40;0.30;;;;;;;4.22;96.49;101535.81;5013996;28;21013;-65
2020/12/19 09:32:58;;;;;;;0.40;0.40;;;;;;;4.24;96.34;101528.34;5013698;28;20474;-65
2020/12/19 09:35:26;;;;;;;0.83;0.50;;;;;;;4.33;96.33;101527.97;5013713;28;20528;-65
2020/12/19 09:37:53;;;;;;;0.47;0.40;;;;;;;4.34;95.82;101516.19;5013751;28;20440;-65
2020/12/19 09:40:20;;;;;;;0.40;0.30;;;;;;;4.40;95.92;101517.94;5014060;28;20463;-64
2020/12/19 09:42:46;;;;;;;1.20;0.87;;;;;;;4.44;95.31;101516.44;5013922;28;20505;-65
2020/12/19 09:45:12;;;;;;;0.40;0.30;;;;;;;4.44;95.08;101524.47;5013920;28;20491;-65
2020/12/19 09:47:41;;;;;;;3.23;0.80;;;;;;;4.54;94.71;101522.81;5013814;28;20479;-68
2020/12/19 09:50:07;;;;;;;1.80;1.17;;;;;;;4.46;93.86;101503.56;5013767;28;20825;-59
2020/12/19 09:52:35;;;;;;;0.50;0.43;;;;;;;4.51;94.06;101506.34;5013731;28;20541;-64
2020/12/19 09:55:01;;;;;;;0.47;0.33;;;;;;;4.55;94.00;101507.50;5013646;28;20521;-64
2020/12/19 09:57:27;;;;;;;2.20;0.63;;;;;;;4.63;94.31;101506.34;5013442;28;20906;-65
2020/12/19 09:59:53;;;;;;;0.60;0.53;;;;;;;4.72;94.38;101511.09;5013549;28;20448;-64
2020/12/19 10:02:19;;;;;;;1.30;0.70;;;;;;;4.79;94.21;101503.72;5013547;28;20508;-64
2020/12/19 10:04:45;;;;;;;0.40;0.30;;;;;;;4.87;94.40;101515.09;5013856;28;20858;-64
2020/12/19 10:07:12;;;;;;;0.70;0.70;;;;;;;4.94;93.85;101510.41;5013765;28;20491;-64
2020/12/19 10:09:39;;;;;;;1.27;0.77;;;;;;;5.00;93.59;101506.75;5013695;28;20471;-65
2020/12/19 10:12:05;;;;;;;0.70;0.70;;;;;;;5.07;92.72;101512.81;5013542;28;20514;-65
2020/12/19 10:14:32;;;;;;;0.50;0.40;;;;;;;5.14;92.42;101513.47;5013368;28;20453;-66
2020/12/19 10:16:58;;;;;;;5.20;1.47;;;;;;;5.18;92.08;101522.69;5013580;28;20468;-64
2020/12/19 10:19:24;;;;;;;4.60;0.60;;;;;;;5.24;91.05;101520.91;5013545;28;20483;-64
2020/12/19 10:21:50;;;;;;;1.70;1.60;;;;;;;5.30;90.90;101517.22;5013078;28;21041;-65
2020/12/19 10:24:17;;;;;;;2.33;1.50;;;;;;;5.29;90.44;101512.91;5013357;28;20476;-65
2020/12/19 10:26:47;;;;;;;1.27;1.17;;;;;;;5.35;90.89;101520.00;5013233;28;20578;-65
2020/12/19 10:29:14;;;;;;;0.40;0.30;;;;;;;5.43;91.01;101521.47;5013149;28;20474;-64
2020/12/19 10:31:40;;;;;;;0.90;0.50;;;;;;;5.50;90.42;101519.44;5013435;28;20464;-64
2020/12/19 10:34:06;;;;;;;2.13;0.67;;;;;;;5.54;90.29;101525.97;5013531;28;20448;-66
2020/12/19 10:36:33;;;;;;;0.40;0.27;;;;;;;5.57;89.86;101530.84;5013261;28;20471;-66
2020/12/19 10:38:59;;;;;;;0.50;0.30;;;;;;;5.57;90.31;101523.59;5013320;28;20670;-66
2020/12/19 10:41:25;;;;;;;0.40;0.40;;;;;;;5.69;90.38;101526.19;5012835;28;21021;-66
2020/12/19 10:43:53;;;;;;;0.60;0.60;;;;;;;5.71;89.83;101518.72;5013205;28;20467;-66
2020/12/19 10:46:21;;;;;;;0.60;0.60;;;;;;;5.80;89.92;101519.13;5012787;28;20484;-66
2020/12/19 10:48:48;;;;;;;1.47;1.37;;;;;;;5.88;89.66;101515.19;5012802;28;21008;-66
2020/12/19 10:51:14;;;;;;;1.63;1.53;;;;;;;5.97;89.07;101509.16;5012835;28;21054;-66
2020/12/19 10:53:41;;;;;;;0.40;0.30;;;;;;;5.97;89.67;101503.78;5012871;28;20864;-67
2020/12/19 10:56:07;;;;;;;0.50;0.30;;;;;;;6.00;89.92;101503.31;5012875;28;20518;-66
2020/12/19 10:58:33;;;;;;;0.60;0.50;;;;;;;6.05;89.29;101510.63;5013231;28;20452;-66
2020/12/19 11:01:00;;;;;;;0.60;0.50;;;;;;;6.18;88.86;101510.28;5012686;28;20481;-66
2020/12/19 11:03:27;;;;;;;6.33;1.47;;;;;;;6.28;88.55;101502.31;5012973;28;20502;-66
2020/12/19 11:05:53;;;;;;;0.73;0.73;;;;;;;6.39;88.24;101505.97;5012321;28;20989;-65
2020/12/19 11:08:20;;;;;;;0.40;0.30;;;;;;;6.45;88.30;101499.59;5013164;28;20815;-66
2020/12/19 11:10:46;;;;;;;3.33;2.00;;;;;;;6.51;88.85;101500.47;5016289;28;20468;-66
2020/12/19 11:13:12;;;;;;;1.17;0.77;;;;;;;6.65;88.13;101503.59;5016251;28;20980;-66
2020/12/19 11:15:40;;;;;;;1.43;0.70;;;;;;;6.71;87.74;101494.50;5016469;28;20510;-68
2020/12/19 11:18:07;;;;;;;1.83;1.07;;;;;;;6.79;87.69;101489.47;5017859;28;20440;-67
2020/12/19 11:20:33;;;;;;;0.40;0.30;;;;;;;6.91;86.61;101485.84;5016427;28;20463;-65
2020/12/19 11:22:59;;;;;;;0.63;0.63;;;;;;;7.01;85.91;101475.16;5016512;28;20509;-68
2020/12/19 11:25:25;;;;;;;1.13;1.03;;;;;;;7.08;85.42;101481.13;5016811;28;20948;-65
2020/12/19 11:27:52;;;;;;;1.10;0.80;;;;;;;7.10;85.01;101473.63;5016881;28;20510;-64
2020/12/19 11:30:18;;;;;;;2.17;1.97;;;;;;;7.23;84.73;101472.38;5016580;28;20463;-65
2020/12/19 11:32:45;;;;;;;1.03;1.03;;;;;;;7.39;84.03;101466.03;5016696;28;20495;-65
2020/12/19 11:35:12;;;;;;;0.67;0.67;;;;;;;7.48;82.68;101469.06;5016813;28;20451;-64